createdAt,value
2022-12-04T00:00:36.188Z,0.00
2022-12-04T00:01:36.166Z,0.00
2022-12-04T00:02:36.250Z,0.00
2022-12-04T00:03:36.128Z,0.00
2022-12-04T00:04:36.170Z,0.00
2022-12-04T00:05:36.082Z,0.00
2022-12-04T00:06:36.055Z,0.00
2022-12-04T00:07:36.105Z,0.00
2022-12-04T00:08:36.022Z,0.00
2022-12-04T00:09:35.997Z,0.00
2022-12-04T00:10:35.968Z,0.00
2022-12-04T00:11:35.947Z,0.00
2022-12-04T00:12:35.922Z,0.00
2022-12-04T00:13:35.903Z,0.00
2022-12-04T00:14:54.549Z,0.00
2022-12-04T00:15:35.856Z,0.00
2022-12-04T00:16:35.993Z,0.00
2022-12-04T00:17:35.812Z,0.00
2022-12-04T00:18:35.790Z,0.00
2022-12-04T00:19:35.774Z,0.00
2022-12-04T00:20:35.745Z,0.00
2022-12-04T00:21:35.725Z,0.00
2022-12-04T00:22:35.704Z,0.00
2022-12-04T00:23:35.683Z,0.00
2022-12-04T00:24:35.658Z,0.00
2022-12-04T00:25:40.938Z,0.00
2022-12-04T00:26:35.623Z,0.00
2022-12-04T00:27:35.594Z,0.00
2022-12-04T00:28:35.569Z,0.00
2022-12-04T00:29:35.547Z,0.00
2022-12-04T00:30:35.525Z,0.00
2022-12-04T00:31:35.565Z,0.00
2022-12-04T00:32:35.478Z,0.00
2022-12-04T00:33:35.457Z,0.00
2022-12-04T00:34:35.438Z,0.00
2022-12-04T00:35:35.426Z,0.00
2022-12-04T00:36:35.396Z,0.00
2022-12-04T00:37:35.369Z,0.00
2022-12-04T00:38:35.346Z,0.00
2022-12-04T00:39:35.327Z,0.00
2022-12-04T00:40:35.302Z,0.00
2022-12-04T00:41:35.281Z,0.00
2022-12-04T00:42:35.257Z,0.00
2022-12-04T00:43:35.238Z,0.00
2022-12-04T00:44:35.216Z,0.00
2022-12-04T00:45:35.280Z,0.00
2022-12-04T00:46:35.171Z,0.00
2022-12-04T00:47:35.150Z,0.00
2022-12-04T00:48:35.125Z,0.00
2022-12-04T00:49:35.109Z,0.00
2022-12-04T00:50:35.081Z,0.00
2022-12-04T00:51:35.060Z,0.00
2022-12-04T00:52:35.037Z,0.00
2022-12-04T00:53:35.014Z,0.00
2022-12-04T00:54:34.994Z,0.00
2022-12-04T00:55:34.968Z,0.00
2022-12-04T00:56:34.952Z,0.00
2022-12-04T00:57:34.927Z,0.00
2022-12-04T00:58:34.906Z,0.00
2022-12-04T00:59:34.882Z,0.00
2022-12-04T01:00:34.869Z,0.00
2022-12-04T01:01:34.937Z,0.00
2022-12-04T01:02:34.883Z,0.00
2022-12-04T01:03:34.852Z,0.00
2022-12-04T01:04:34.773Z,0.00
2022-12-04T01:05:34.749Z,0.00
2022-12-04T01:06:34.728Z,0.00
2022-12-04T01:07:40.700Z,0.00
2022-12-04T01:08:34.685Z,0.00
2022-12-04T01:09:34.659Z,0.00
2022-12-04T01:10:34.645Z,0.00
2022-12-04T01:11:34.619Z,0.00
2022-12-04T01:12:34.602Z,0.00
2022-12-04T01:13:34.575Z,0.00
2022-12-04T01:14:34.559Z,0.00
2022-12-04T01:15:34.537Z,0.00
2022-12-04T01:16:34.549Z,0.00
2022-12-04T01:17:34.486Z,0.00
2022-12-04T01:18:34.467Z,0.00
2022-12-04T01:19:34.444Z,0.00
2022-12-04T01:20:34.423Z,0.00
2022-12-04T01:21:34.398Z,0.00
2022-12-04T01:22:34.377Z,0.00
2022-12-04T01:23:34.352Z,0.00
2022-12-04T01:24:34.337Z,0.00
2022-12-04T01:25:34.307Z,0.00
2022-12-04T01:26:34.287Z,0.00
2022-12-04T01:27:34.264Z,0.00
2022-12-04T01:28:34.249Z,0.00
2022-12-04T01:29:34.220Z,0.00
2022-12-04T01:30:34.197Z,0.00
2022-12-04T01:31:34.225Z,0.00
2022-12-04T01:32:34.159Z,0.00
2022-12-04T01:33:34.134Z,0.00
2022-12-04T01:34:34.122Z,0.00
2022-12-04T01:35:34.089Z,0.00
2022-12-04T01:36:34.065Z,0.00
2022-12-04T01:37:34.049Z,0.00
2022-12-04T01:38:34.023Z,0.00
2022-12-04T01:39:33.997Z,0.00
2022-12-04T01:40:33.977Z,0.00
2022-12-04T01:41:33.952Z,0.00
2022-12-04T01:42:33.932Z,0.00
2022-12-04T01:43:33.910Z,0.00
2022-12-04T01:44:33.893Z,0.00
2022-12-04T01:45:33.919Z,0.00
2022-12-04T01:46:33.846Z,0.00
2022-12-04T01:47:33.820Z,0.00
2022-12-04T01:48:33.805Z,0.00
2022-12-04T01:49:33.776Z,0.00
2022-12-04T01:50:33.755Z,0.00
2022-12-04T01:51:33.734Z,0.00
2022-12-04T01:52:33.713Z,0.00
2022-12-04T01:53:33.689Z,0.00
2022-12-04T01:54:33.668Z,0.00
2022-12-04T01:55:33.643Z,0.00
2022-12-04T01:56:33.626Z,0.00
2022-12-04T01:57:33.599Z,0.00
2022-12-04T01:58:33.579Z,0.00
2022-12-04T01:59:33.555Z,0.00
2022-12-04T02:00:33.540Z,0.00
2022-12-04T02:01:33.620Z,0.00
2022-12-04T02:02:33.554Z,0.00
2022-12-04T02:03:33.469Z,0.00
2022-12-04T02:04:33.454Z,0.00
2022-12-04T02:05:33.430Z,0.00
2022-12-04T02:06:33.409Z,0.00
2022-12-04T02:07:33.419Z,0.00
2022-12-04T02:08:33.358Z,0.00
2022-12-04T02:09:33.339Z,0.00
2022-12-04T02:10:33.314Z,0.00
2022-12-04T02:11:33.297Z,0.00
2022-12-04T02:12:33.271Z,0.00
2022-12-04T02:13:33.247Z,0.00
2022-12-04T02:14:33.227Z,0.00
2022-12-04T02:15:33.204Z,0.00
2022-12-04T02:16:33.224Z,0.00
2022-12-04T02:17:33.161Z,0.00
2022-12-04T02:18:33.142Z,0.00
2022-12-04T02:19:33.116Z,0.00
2022-12-04T02:20:33.096Z,0.00
2022-12-04T02:21:33.075Z,0.00
2022-12-04T02:22:33.053Z,0.00
2022-12-04T02:23:33.027Z,0.00
2022-12-04T02:24:33.009Z,0.00
2022-12-04T02:25:32.991Z,0.00
2022-12-04T02:26:32.963Z,0.00
2022-12-04T02:27:32.938Z,0.00
2022-12-04T02:28:32.917Z,0.00
2022-12-04T02:29:32.897Z,0.00
2022-12-04T02:30:32.933Z,0.00
2022-12-04T02:31:32.849Z,0.00
2022-12-04T02:32:32.836Z,0.00
2022-12-04T02:33:32.811Z,0.00
2022-12-04T02:34:32.789Z,0.00
2022-12-04T02:35:32.764Z,0.00
2022-12-04T02:36:32.745Z,0.00
2022-12-04T02:37:32.719Z,0.00
2022-12-04T02:38:32.698Z,0.00
2022-12-04T02:39:32.675Z,0.00
2022-12-04T02:40:32.655Z,0.00
2022-12-04T02:41:32.632Z,0.00
2022-12-04T02:42:32.614Z,0.00
2022-12-04T02:43:32.588Z,0.00
2022-12-04T02:44:32.568Z,0.00
2022-12-04T02:45:32.590Z,0.00
2022-12-04T02:46:32.586Z,0.00
2022-12-04T02:47:32.502Z,0.00
2022-12-04T02:48:32.486Z,0.00
2022-12-04T02:49:32.458Z,0.00
2022-12-04T02:50:32.437Z,0.00
2022-12-04T02:51:32.413Z,0.00
2022-12-04T02:52:32.393Z,0.00
2022-12-04T02:53:32.372Z,0.00
2022-12-04T02:54:32.349Z,0.00
2022-12-04T02:55:32.324Z,0.00
2022-12-04T02:56:32.306Z,0.00
2022-12-04T02:57:32.287Z,0.00
2022-12-04T02:58:32.265Z,0.00
2022-12-04T02:59:32.239Z,0.00
2022-12-04T03:00:32.218Z,0.00
2022-12-04T03:01:32.233Z,0.00
2022-12-04T03:02:32.227Z,0.00
2022-12-04T03:03:32.155Z,0.00
2022-12-04T03:04:32.136Z,0.00
2022-12-04T03:05:32.108Z,0.00
2022-12-04T03:06:32.088Z,0.00
2022-12-04T03:07:32.091Z,0.00
2022-12-04T03:08:32.043Z,0.00
2022-12-04T03:09:32.021Z,0.00
2022-12-04T03:10:32.000Z,0.00
2022-12-04T03:11:31.976Z,0.00
2022-12-04T03:12:31.958Z,0.00
2022-12-04T03:13:31.940Z,0.00
2022-12-04T03:14:31.912Z,0.00
2022-12-04T03:15:31.890Z,0.00
2022-12-04T03:16:31.896Z,0.00
2022-12-04T03:17:31.846Z,0.00
2022-12-04T03:18:32.108Z,0.00
2022-12-04T03:19:31.806Z,0.00
2022-12-04T03:20:31.790Z,0.00
2022-12-04T03:21:31.757Z,0.00
2022-12-04T03:22:31.738Z,0.00
2022-12-04T03:23:31.713Z,0.00
2022-12-04T03:24:31.693Z,0.00
2022-12-04T03:25:31.670Z,0.00
2022-12-04T03:26:31.650Z,0.00
2022-12-04T03:27:31.626Z,0.00
2022-12-04T03:28:31.608Z,0.00
2022-12-04T03:29:31.590Z,0.00
2022-12-04T03:30:31.609Z,0.00
2022-12-04T03:31:31.543Z,0.00
2022-12-04T03:32:31.522Z,0.00
2022-12-04T03:33:31.496Z,0.00
2022-12-04T03:34:31.476Z,0.00
2022-12-04T03:35:31.453Z,0.00
2022-12-04T03:36:31.436Z,0.00
2022-12-04T03:37:31.409Z,0.00
2022-12-04T03:38:31.389Z,0.00
2022-12-04T03:39:31.367Z,0.00
2022-12-04T03:40:31.346Z,0.00
2022-12-04T03:41:31.320Z,0.00
2022-12-04T03:42:31.300Z,0.00
2022-12-04T03:43:31.281Z,0.00
2022-12-04T03:44:31.258Z,0.00
2022-12-04T03:45:31.236Z,0.00
2022-12-04T03:46:31.306Z,0.00
2022-12-04T03:47:31.194Z,0.00
2022-12-04T03:48:31.179Z,0.00
2022-12-04T03:49:31.147Z,0.00
2022-12-04T03:50:31.128Z,0.00
2022-12-04T03:51:31.106Z,0.00
2022-12-04T03:52:31.090Z,0.00
2022-12-04T03:53:31.061Z,0.00
2022-12-04T03:54:31.039Z,0.00
2022-12-04T03:55:31.022Z,0.00
2022-12-04T03:56:30.998Z,0.00
2022-12-04T03:57:30.980Z,0.00
2022-12-04T03:58:30.952Z,0.00
2022-12-04T03:59:30.935Z,0.00
2022-12-04T04:00:30.912Z,0.00
2022-12-04T04:01:30.931Z,0.00
2022-12-04T04:02:30.948Z,0.00
2022-12-04T04:03:30.843Z,0.00
2022-12-04T04:04:30.824Z,0.00
2022-12-04T04:05:30.800Z,0.00
2022-12-04T04:06:30.788Z,0.00
2022-12-04T04:07:35.284Z,0.00
2022-12-04T04:08:30.883Z,0.00
2022-12-04T04:09:30.715Z,0.00
2022-12-04T04:10:30.704Z,0.00
2022-12-04T04:11:30.670Z,0.00
2022-12-04T04:12:30.650Z,0.00
2022-12-04T04:13:30.627Z,0.00
2022-12-04T04:14:30.608Z,0.00
2022-12-04T04:15:30.603Z,0.00
2022-12-04T04:16:30.564Z,0.00
2022-12-04T04:17:36.456Z,0.00
2022-12-04T04:18:30.526Z,0.00
2022-12-04T04:19:30.497Z,0.00
2022-12-04T04:20:30.480Z,0.00
2022-12-04T04:21:30.455Z,0.00
2022-12-04T04:22:30.435Z,0.00
2022-12-04T04:23:30.417Z,0.00
2022-12-04T04:24:30.397Z,0.00
2022-12-04T04:25:30.366Z,0.00
2022-12-04T04:26:30.348Z,0.00
2022-12-04T04:27:30.325Z,0.00
2022-12-04T04:28:30.307Z,0.00
2022-12-04T04:29:30.285Z,0.00
2022-12-04T04:30:30.260Z,0.00
2022-12-04T04:31:30.347Z,0.00
2022-12-04T04:32:30.219Z,0.00
2022-12-04T04:33:30.196Z,0.00
2022-12-04T04:34:30.175Z,0.00
2022-12-04T04:35:30.155Z,0.00
2022-12-04T04:36:30.134Z,0.00
2022-12-04T04:37:30.108Z,0.00
2022-12-04T04:38:30.091Z,0.00
2022-12-04T04:39:30.069Z,0.00
2022-12-04T04:40:30.053Z,0.00
2022-12-04T04:41:30.023Z,0.00
2022-12-04T04:42:30.002Z,0.00
2022-12-04T04:43:29.980Z,0.00
2022-12-04T04:44:29.960Z,0.00
2022-12-04T04:45:29.934Z,0.00
2022-12-04T04:46:29.997Z,0.00
2022-12-04T04:47:29.892Z,0.00
2022-12-04T04:48:29.876Z,0.00
2022-12-04T04:49:29.850Z,0.00
2022-12-04T04:50:29.835Z,0.00
2022-12-04T04:51:29.808Z,0.00
2022-12-04T04:52:29.788Z,0.00
2022-12-04T04:53:29.764Z,0.00
2022-12-04T04:54:29.743Z,0.00
2022-12-04T04:55:29.721Z,0.00
2022-12-04T04:56:29.707Z,0.00
2022-12-04T04:57:29.692Z,0.00
2022-12-04T04:58:29.659Z,0.00
2022-12-04T04:59:29.636Z,0.00
2022-12-04T05:00:29.616Z,0.00
2022-12-04T05:01:29.634Z,0.00
2022-12-04T05:02:29.598Z,0.00
2022-12-04T05:03:29.552Z,0.00
2022-12-04T05:04:29.529Z,0.00
2022-12-04T05:05:29.518Z,0.00
2022-12-04T05:06:29.485Z,0.00
2022-12-04T05:07:29.536Z,0.00
2022-12-04T05:08:29.444Z,0.00
2022-12-04T05:09:29.419Z,0.00
2022-12-04T05:10:29.397Z,0.00
2022-12-04T05:11:29.378Z,0.00
2022-12-04T05:12:29.354Z,0.00
2022-12-04T05:13:29.334Z,0.00
2022-12-04T05:14:29.312Z,0.00
2022-12-04T05:15:29.291Z,0.00
2022-12-04T05:16:29.338Z,0.00
2022-12-04T05:17:29.249Z,0.00
2022-12-04T05:18:29.226Z,0.00
2022-12-04T05:19:29.205Z,0.00
2022-12-04T05:20:29.183Z,0.00
2022-12-04T05:21:29.161Z,0.00
2022-12-04T05:22:29.137Z,0.00
2022-12-04T05:23:29.119Z,0.00
2022-12-04T05:24:29.097Z,0.00
2022-12-04T05:25:29.079Z,0.00
2022-12-04T05:26:29.052Z,0.00
2022-12-04T05:27:29.034Z,0.00
2022-12-04T05:28:29.017Z,0.00
2022-12-04T05:29:34.279Z,0.00
2022-12-04T05:30:28.988Z,0.00
2022-12-04T05:31:29.010Z,0.00
2022-12-04T05:32:28.924Z,0.00
2022-12-04T05:33:28.904Z,0.00
2022-12-04T05:34:28.892Z,0.00
2022-12-04T05:35:28.861Z,0.00
2022-12-04T05:36:28.847Z,0.00
2022-12-04T05:37:28.817Z,0.00
2022-12-04T05:38:28.803Z,0.00
2022-12-04T05:39:28.772Z,0.00
2022-12-04T05:40:28.753Z,0.00
2022-12-04T05:41:28.731Z,0.00
2022-12-04T05:42:28.710Z,0.00
2022-12-04T05:43:28.688Z,0.00
2022-12-04T05:44:28.670Z,0.00
2022-12-04T05:45:28.642Z,0.00
2022-12-04T05:46:28.666Z,0.00
2022-12-04T05:47:28.604Z,0.00
2022-12-04T05:48:28.579Z,0.00
2022-12-04T05:49:28.558Z,0.00
2022-12-04T05:50:28.537Z,0.00
2022-12-04T05:51:28.518Z,0.00
2022-12-04T05:52:28.494Z,0.00
2022-12-04T05:53:28.473Z,0.00
2022-12-04T05:54:28.452Z,0.00
2022-12-04T05:55:28.431Z,0.00
2022-12-04T05:56:28.408Z,0.00
2022-12-04T05:57:29.980Z,0.00
2022-12-04T05:58:28.363Z,0.00
2022-12-04T05:59:28.345Z,0.00
2022-12-04T06:00:28.327Z,0.00
2022-12-04T06:01:28.300Z,0.00
2022-12-04T06:02:28.330Z,0.00
2022-12-04T06:03:28.305Z,0.00
2022-12-04T06:04:28.236Z,0.00
2022-12-04T06:05:28.214Z,0.00
2022-12-04T06:06:28.191Z,0.00
2022-12-04T06:07:28.212Z,0.00
2022-12-04T06:08:28.153Z,0.00
2022-12-04T06:09:28.129Z,0.00
2022-12-04T06:10:28.105Z,0.00
2022-12-04T06:11:28.095Z,0.00
2022-12-04T06:12:28.067Z,0.00
2022-12-04T06:13:28.041Z,0.00
2022-12-04T06:14:28.019Z,0.00
2022-12-04T06:15:28.000Z,0.00
2022-12-04T06:16:28.035Z,0.00
2022-12-04T06:17:27.957Z,0.00
2022-12-04T06:18:27.934Z,0.00
2022-12-04T06:19:27.915Z,0.00
2022-12-04T06:20:27.960Z,0.00
2022-12-04T06:21:27.871Z,0.00
2022-12-04T06:22:27.850Z,0.00
2022-12-04T06:23:27.828Z,0.00
2022-12-04T06:24:27.806Z,0.00
2022-12-04T06:25:27.785Z,0.00
2022-12-04T06:26:27.767Z,0.00
2022-12-04T06:27:28.644Z,0.00
2022-12-04T06:28:27.717Z,0.00
2022-12-04T06:29:27.701Z,0.00
2022-12-04T06:30:27.676Z,0.00
2022-12-04T06:31:27.709Z,0.00
2022-12-04T06:32:27.638Z,0.00
2022-12-04T06:33:27.611Z,0.00
2022-12-04T06:34:27.613Z,0.00
2022-12-04T06:35:27.569Z,0.00
2022-12-04T06:36:27.549Z,0.00
2022-12-04T06:37:27.529Z,0.00
2022-12-04T06:38:27.504Z,0.00
2022-12-04T06:39:27.483Z,0.00
2022-12-04T06:40:27.470Z,0.00
2022-12-04T06:41:27.439Z,0.00
2022-12-04T06:42:27.424Z,0.00
2022-12-04T06:43:27.398Z,0.00
2022-12-04T06:44:27.376Z,0.00
2022-12-04T06:45:27.417Z,0.00
2022-12-04T06:46:27.413Z,0.00
2022-12-04T06:47:27.313Z,0.00
2022-12-04T06:48:27.299Z,0.00
2022-12-04T06:49:27.272Z,0.00
2022-12-04T06:50:27.249Z,0.00
2022-12-04T06:51:27.226Z,0.00
2022-12-04T06:52:27.204Z,4.00
2022-12-04T06:53:27.184Z,4.00
2022-12-04T06:54:27.162Z,4.00
2022-12-04T06:55:27.142Z,0.00
2022-12-04T06:56:27.118Z,0.00
2022-12-04T06:57:27.095Z,0.00
2022-12-04T06:58:27.076Z,4.00
2022-12-04T06:59:27.053Z,4.00
2022-12-04T07:00:27.033Z,4.00
2022-12-04T07:01:27.106Z,4.00
2022-12-04T07:02:27.101Z,4.00
2022-12-04T07:03:26.967Z,8.00
2022-12-04T07:04:27.034Z,4.00
2022-12-04T07:05:26.925Z,4.00
2022-12-04T07:06:26.906Z,8.00
2022-12-04T07:07:27.010Z,8.00
2022-12-04T07:08:26.862Z,8.00
2022-12-04T07:09:26.841Z,8.00
2022-12-04T07:10:26.819Z,8.00
2022-12-04T07:11:26.797Z,8.00
2022-12-04T07:12:26.774Z,12.00
2022-12-04T07:13:26.764Z,12.00
2022-12-04T07:14:26.731Z,12.00
2022-12-04T07:15:26.710Z,16.00
2022-12-04T07:16:26.796Z,16.00
2022-12-04T07:17:26.667Z,12.00
2022-12-04T07:18:26.648Z,16.00
2022-12-04T07:19:26.626Z,16.00
2022-12-04T07:20:26.609Z,16.00
2022-12-04T07:21:26.589Z,20.00
2022-12-04T07:22:26.559Z,20.00
2022-12-04T07:23:26.541Z,20.00
2022-12-04T07:24:26.534Z,20.00
2022-12-04T07:25:26.496Z,24.00
2022-12-04T07:26:26.491Z,20.00
2022-12-04T07:27:26.457Z,24.00
2022-12-04T07:28:26.431Z,24.00
2022-12-04T07:29:26.411Z,28.00
2022-12-04T07:30:26.389Z,32.00
2022-12-04T07:31:26.437Z,32.00
2022-12-04T07:32:26.345Z,32.00
2022-12-04T07:33:26.324Z,36.00
2022-12-04T07:34:26.302Z,40.00
2022-12-04T07:35:26.281Z,44.00
2022-12-04T07:36:26.265Z,40.00
2022-12-04T07:37:26.240Z,44.00
2022-12-04T07:38:26.225Z,44.00
2022-12-04T07:39:26.198Z,44.00
2022-12-04T07:40:26.177Z,48.00
2022-12-04T07:41:26.156Z,52.00
2022-12-04T07:42:26.132Z,60.00
2022-12-04T07:43:26.113Z,60.00
2022-12-04T07:44:26.090Z,60.00
2022-12-04T07:45:26.069Z,56.00
2022-12-04T07:46:26.101Z,64.00
2022-12-04T07:47:26.027Z,76.00
2022-12-04T07:48:31.692Z,76.00
2022-12-04T07:49:25.981Z,72.00
2022-12-04T07:50:25.959Z,64.00
2022-12-04T07:51:25.941Z,72.00
2022-12-04T07:52:25.923Z,72.00
2022-12-04T07:53:25.897Z,72.00
2022-12-04T07:54:25.877Z,72.00
2022-12-04T07:55:25.854Z,76.00
2022-12-04T07:56:25.834Z,72.00
2022-12-04T07:57:25.812Z,72.00
2022-12-04T07:58:25.789Z,76.00
2022-12-04T07:59:25.768Z,84.00
2022-12-04T08:00:25.746Z,80.00
2022-12-04T08:01:25.760Z,72.00
2022-12-04T08:02:25.701Z,68.00
2022-12-04T08:03:25.685Z,72.00
2022-12-04T08:04:25.724Z,76.00
2022-12-04T08:05:25.640Z,76.00
2022-12-04T08:06:25.622Z,76.00
2022-12-04T08:07:25.598Z,76.00
2022-12-04T08:08:25.589Z,76.00
2022-12-04T08:09:25.555Z,80.00
2022-12-04T08:10:25.535Z,88.00
2022-12-04T08:11:25.513Z,80.00
2022-12-04T08:12:25.489Z,88.00
2022-12-04T08:13:25.469Z,84.00
2022-12-04T08:14:25.450Z,80.00
2022-12-04T08:15:25.431Z,76.00
2022-12-04T08:16:25.440Z,80.00
2022-12-04T08:17:25.468Z,80.00
2022-12-04T08:18:25.365Z,76.00
2022-12-04T08:19:25.342Z,76.00
2022-12-04T08:20:25.320Z,76.00
2022-12-04T08:21:25.299Z,84.00
2022-12-04T08:22:25.621Z,84.00
2022-12-04T08:23:25.256Z,84.00
2022-12-04T08:24:25.239Z,88.00
2022-12-04T08:25:25.212Z,92.00
2022-12-04T08:26:25.189Z,84.00
2022-12-04T08:27:25.169Z,88.00
2022-12-04T08:28:25.149Z,84.00
2022-12-04T08:29:25.128Z,80.00
2022-12-04T08:30:25.124Z,88.00
2022-12-04T08:31:25.140Z,92.00
2022-12-04T08:32:25.067Z,92.00
2022-12-04T08:33:25.046Z,96.00
2022-12-04T08:34:25.021Z,96.00
2022-12-04T08:35:24.999Z,88.00
2022-12-04T08:36:24.976Z,92.00
2022-12-04T08:37:24.956Z,112.00
2022-12-04T08:38:24.936Z,112.00
2022-12-04T08:39:24.913Z,108.00
2022-12-04T08:40:24.910Z,112.00
2022-12-04T08:41:24.870Z,120.00
2022-12-04T08:42:24.849Z,116.00
2022-12-04T08:43:24.830Z,112.00
2022-12-04T08:44:24.809Z,136.00
2022-12-04T08:45:24.787Z,156.00
2022-12-04T08:46:25.028Z,136.00
2022-12-04T08:47:24.744Z,132.00
2022-12-04T08:48:24.719Z,136.00
2022-12-04T08:49:24.707Z,136.00
2022-12-04T08:50:24.676Z,128.00
2022-12-04T08:51:24.657Z,144.00
2022-12-04T08:52:24.635Z,160.00
2022-12-04T08:53:24.626Z,168.00
2022-12-04T08:54:24.592Z,180.00
2022-12-04T08:55:24.573Z,200.00
2022-12-04T08:56:24.555Z,188.00
2022-12-04T08:57:24.530Z,196.00
2022-12-04T08:58:24.507Z,212.00
2022-12-04T08:59:24.487Z,208.00
2022-12-04T09:00:24.483Z,212.00
2022-12-04T09:01:24.472Z,204.00
2022-12-04T09:02:24.419Z,208.00
2022-12-04T09:03:30.540Z,212.00
2022-12-04T09:04:24.438Z,216.00
2022-12-04T09:05:24.356Z,212.00
2022-12-04T09:06:24.357Z,208.00
2022-12-04T09:07:24.313Z,212.00
2022-12-04T09:08:24.328Z,216.00
2022-12-04T09:09:24.277Z,212.00
2022-12-04T09:10:24.247Z,204.00
2022-12-04T09:11:24.239Z,212.00
2022-12-04T09:12:24.228Z,212.00
2022-12-04T09:13:24.208Z,212.00
2022-12-04T09:14:24.167Z,224.00
2022-12-04T09:15:24.146Z,212.00
2022-12-04T09:16:24.178Z,204.00
2022-12-04T09:17:24.101Z,192.00
2022-12-04T09:18:24.079Z,180.00
2022-12-04T09:19:24.057Z,192.00
2022-12-04T09:20:24.034Z,180.00
2022-12-04T09:21:24.029Z,184.00
2022-12-04T09:22:24.004Z,188.00
2022-12-04T09:23:23.973Z,188.00
2022-12-04T09:24:23.952Z,196.00
2022-12-04T09:25:23.934Z,192.00
2022-12-04T09:26:23.910Z,200.00
2022-12-04T09:27:23.928Z,204.00
2022-12-04T09:28:23.874Z,216.00
2022-12-04T09:29:23.841Z,220.00
2022-12-04T09:30:23.820Z,216.00
2022-12-04T09:31:24.011Z,216.00
2022-12-04T09:32:23.813Z,224.00
2022-12-04T09:33:23.769Z,220.00
2022-12-04T09:34:23.775Z,232.00
2022-12-04T09:35:23.739Z,240.00
2022-12-04T09:36:23.697Z,232.00
2022-12-04T09:37:23.669Z,228.00
2022-12-04T09:38:23.652Z,236.00
2022-12-04T09:39:23.627Z,240.00
2022-12-04T09:40:23.611Z,248.00
2022-12-04T09:41:23.592Z,244.00
2022-12-04T09:42:23.586Z,236.00
2022-12-04T09:43:23.549Z,224.00
2022-12-04T09:44:23.532Z,224.00
2022-12-04T09:45:23.500Z,228.00
2022-12-04T09:46:23.553Z,248.00
2022-12-04T09:47:23.476Z,264.00
2022-12-04T09:48:23.444Z,280.00
2022-12-04T09:49:23.416Z,284.00
2022-12-04T09:50:23.395Z,284.00
2022-12-04T09:51:23.373Z,300.00
2022-12-04T09:52:23.351Z,328.00
2022-12-04T09:53:23.327Z,320.00
2022-12-04T09:54:23.310Z,316.00
2022-12-04T09:55:23.289Z,332.00
2022-12-04T09:56:23.267Z,320.00
2022-12-04T09:57:23.244Z,300.00
2022-12-04T09:58:23.225Z,304.00
2022-12-04T09:59:23.201Z,312.00
2022-12-04T10:00:23.187Z,304.00
2022-12-04T10:01:23.160Z,308.00
2022-12-04T10:02:23.214Z,312.00
2022-12-04T10:03:23.174Z,300.00
2022-12-04T10:04:23.153Z,308.00
2022-12-04T10:05:23.072Z,316.00
2022-12-04T10:06:23.059Z,300.00
2022-12-04T10:07:23.031Z,300.00
2022-12-04T10:08:23.096Z,304.00
2022-12-04T10:09:22.988Z,312.00
2022-12-04T10:10:23.027Z,324.00
2022-12-04T10:11:25.552Z,344.00
2022-12-04T10:12:22.926Z,344.00
2022-12-04T10:13:22.903Z,344.00
2022-12-04T10:14:22.963Z,344.00
2022-12-04T10:15:22.863Z,348.00
2022-12-04T10:16:22.962Z,344.00
2022-12-04T10:17:25.493Z,348.00
2022-12-04T10:18:22.825Z,340.00
2022-12-04T10:19:22.778Z,320.00
2022-12-04T10:20:22.841Z,316.00
2022-12-04T10:21:22.736Z,284.00
2022-12-04T10:22:22.716Z,276.00
2022-12-04T10:23:22.693Z,272.00
2022-12-04T10:24:22.677Z,272.00
2022-12-04T10:25:22.652Z,264.00
2022-12-04T10:26:22.636Z,260.00
2022-12-04T10:27:22.607Z,264.00
2022-12-04T10:28:22.590Z,252.00
2022-12-04T10:29:22.580Z,240.00
2022-12-04T10:30:22.648Z,236.00
2022-12-04T10:31:22.585Z,228.00
2022-12-04T10:32:22.524Z,224.00
2022-12-04T10:33:22.479Z,228.00
2022-12-04T10:34:22.459Z,232.00
2022-12-04T10:35:22.439Z,236.00
2022-12-04T10:36:22.437Z,236.00
2022-12-04T10:37:22.394Z,224.00
2022-12-04T10:38:22.376Z,224.00
2022-12-04T10:39:22.353Z,220.00
2022-12-04T10:40:22.356Z,212.00
2022-12-04T10:41:22.311Z,212.00
2022-12-04T10:42:22.291Z,212.00
2022-12-04T10:43:22.268Z,212.00
2022-12-04T10:44:22.248Z,216.00
2022-12-04T10:45:22.231Z,216.00
2022-12-04T10:46:22.299Z,208.00
2022-12-04T10:47:22.191Z,216.00
2022-12-04T10:48:22.179Z,220.00
2022-12-04T10:49:22.140Z,224.00
2022-12-04T10:50:22.129Z,232.00
2022-12-04T10:51:22.098Z,244.00
2022-12-04T10:52:22.078Z,244.00
2022-12-04T10:53:22.058Z,236.00
2022-12-04T10:54:22.066Z,240.00
2022-12-04T10:55:22.013Z,244.00
2022-12-04T10:56:21.998Z,248.00
2022-12-04T10:57:21.971Z,240.00
2022-12-04T10:58:21.968Z,244.00
2022-12-04T10:59:21.936Z,244.00
2022-12-04T11:00:21.910Z,248.00
2022-12-04T11:01:21.975Z,252.00
2022-12-04T11:02:22.008Z,252.00
2022-12-04T11:03:21.948Z,244.00
2022-12-04T11:04:21.829Z,240.00
2022-12-04T11:05:21.802Z,240.00
2022-12-04T11:06:21.787Z,252.00
2022-12-04T11:07:21.767Z,244.00
2022-12-04T11:08:21.806Z,240.00
2022-12-04T11:09:21.767Z,228.00
2022-12-04T11:10:21.699Z,224.00
2022-12-04T11:11:21.679Z,224.00
2022-12-04T11:12:21.664Z,220.00
2022-12-04T11:13:21.636Z,232.00
2022-12-04T11:14:21.613Z,236.00
2022-12-04T11:15:21.595Z,228.00
2022-12-04T11:16:21.649Z,220.00
2022-12-04T11:17:21.556Z,220.00
2022-12-04T11:18:21.530Z,220.00
2022-12-04T11:19:21.515Z,224.00
2022-12-04T11:20:21.543Z,224.00
2022-12-04T11:21:21.466Z,232.00
2022-12-04T11:22:21.447Z,248.00
2022-12-04T11:23:21.423Z,256.00
2022-12-04T11:24:21.408Z,260.00
2022-12-04T11:25:21.379Z,276.00
2022-12-04T11:26:21.360Z,284.00
2022-12-04T11:27:21.341Z,296.00
2022-12-04T11:28:40.997Z,284.00
2022-12-04T11:29:21.295Z,288.00
2022-12-04T11:30:21.282Z,288.00
2022-12-04T11:31:21.291Z,284.00
2022-12-04T11:32:21.235Z,276.00
2022-12-04T11:33:21.213Z,268.00
2022-12-04T11:34:21.190Z,272.00
2022-12-04T11:35:21.170Z,280.00
2022-12-04T11:36:21.154Z,288.00
2022-12-04T11:37:21.125Z,292.00
2022-12-04T11:38:21.110Z,276.00
2022-12-04T11:39:21.097Z,276.00
2022-12-04T11:40:21.069Z,276.00
2022-12-04T11:41:21.046Z,272.00
2022-12-04T11:42:21.024Z,264.00
2022-12-04T11:43:21.029Z,252.00
2022-12-04T11:44:20.981Z,236.00
2022-12-04T11:45:20.966Z,228.00
2022-12-04T11:46:21.000Z,212.00
2022-12-04T11:47:20.916Z,196.00
2022-12-04T11:48:20.895Z,184.00
2022-12-04T11:49:20.874Z,180.00
2022-12-04T11:50:20.856Z,176.00
2022-12-04T11:51:20.837Z,172.00
2022-12-04T11:52:20.834Z,172.00
2022-12-04T11:53:20.793Z,172.00
2022-12-04T11:54:20.770Z,176.00
2022-12-04T11:55:25.355Z,176.00
2022-12-04T11:56:20.731Z,168.00
2022-12-04T11:57:20.707Z,164.00
2022-12-04T11:58:20.689Z,172.00
2022-12-04T11:59:20.666Z,180.00
2022-12-04T12:00:20.649Z,180.00
2022-12-04T12:01:20.634Z,184.00
2022-12-04T12:02:20.668Z,196.00
2022-12-04T12:03:20.731Z,212.00
2022-12-04T12:04:20.564Z,204.00
2022-12-04T12:05:20.538Z,188.00
2022-12-04T12:06:20.522Z,180.00
2022-12-04T12:07:20.507Z,176.00
2022-12-04T12:08:20.483Z,180.00
2022-12-04T12:09:20.459Z,180.00
2022-12-04T12:10:20.434Z,176.00
2022-12-04T12:11:20.410Z,172.00
2022-12-04T12:12:20.394Z,176.00
2022-12-04T12:13:20.369Z,180.00
2022-12-04T12:14:20.353Z,188.00
2022-12-04T12:15:20.347Z,188.00
2022-12-04T12:16:20.342Z,188.00
2022-12-04T12:17:20.284Z,192.00
2022-12-04T12:18:21.031Z,196.00
2022-12-04T12:19:20.240Z,196.00
2022-12-04T12:20:20.253Z,200.00
2022-12-04T12:21:20.200Z,216.00
2022-12-04T12:22:20.184Z,228.00
2022-12-04T12:23:20.159Z,232.00
2022-12-04T12:24:20.144Z,220.00
2022-12-04T12:25:20.116Z,216.00
2022-12-04T12:26:20.111Z,212.00
2022-12-04T12:27:20.078Z,212.00
2022-12-04T12:28:20.055Z,216.00
2022-12-04T12:29:20.031Z,208.00
2022-12-04T12:30:20.022Z,196.00
2022-12-04T12:31:20.039Z,192.00
2022-12-04T12:32:20.028Z,184.00
2022-12-04T12:33:19.950Z,172.00
2022-12-04T12:34:19.930Z,180.00
2022-12-04T12:35:19.911Z,184.00
2022-12-04T12:36:19.888Z,180.00
2022-12-04T12:37:19.873Z,176.00
2022-12-04T12:38:19.846Z,172.00
2022-12-04T12:39:19.827Z,168.00
2022-12-04T12:40:19.811Z,176.00
2022-12-04T12:41:19.787Z,188.00
2022-12-04T12:42:19.765Z,188.00
2022-12-04T12:43:19.760Z,176.00
2022-12-04T12:44:19.735Z,172.00
2022-12-04T12:45:19.700Z,168.00
2022-12-04T12:46:19.741Z,168.00
2022-12-04T12:47:19.658Z,172.00
2022-12-04T12:48:19.652Z,168.00
2022-12-04T12:49:19.613Z,164.00
2022-12-04T12:50:19.600Z,172.00
2022-12-04T12:51:33.794Z,180.00
2022-12-04T12:52:19.556Z,192.00
2022-12-04T12:53:19.538Z,192.00
2022-12-04T12:54:19.512Z,180.00
2022-12-04T12:55:19.491Z,172.00
2022-12-04T12:56:19.474Z,172.00
2022-12-04T12:57:19.451Z,168.00
2022-12-04T12:58:19.430Z,164.00